KAAF/AAF METAR and TAF weather

Enter ICAO airport designator
Station Type Date Time Source
KAAF METAR 2023/01/30 09:53 UTC NOAA

KAAF 300953Z AUTO 00000KT 3/4SM BR VV002 18/18 A3012 RMK AO2 SLP199 T01830183


Station Type Date Time Source
KAAF Decoded METAR 2023/01/30 09:53 UTC NOAA

APALACHICOLA MUNICIPAL AIRPORT, FL, United States (KAAF) 29-44N 085-01W 5M
Jan 30, 2023 - 04:53 AM EST / 2023.01.30 0953 UTC
Wind: Calm:0
Visibility: 3/4 mile(s):0
Sky conditions: obscured
Weather: mist
Temperature: 64.9 F (18.3 C)
Dew Point: 64.9 F (18.3 C)
Relative Humidity: 100%
Pressure (altimeter): 30.12 in. Hg (1019 hPa)
ob: KAAF 300953Z AUTO 00000KT 3/4SM BR VV002 18/18 A3012 RMK AO2 SLP199 T01830183
cycle: 10

Station Type Date Time Source
KAAF TAF UTC NOAA

Error!

Example: see airport list